Time;durP1;ratioP1;P1;durP2;ratioP2;P2;SDS_P1;SDS_P2;PMS_P1;PMS_P2;Temp;Humidity;BMP_temperature;BMP_pressure;BME280_temperature;BME280_humidity;BME280_pressure;Samples;Min_cycle;Max_cycle;Signal;HPM_P1;HPM_P2
2023/03/01 00:01:18;;;;;;;14.47;10.40;;;;;;;-0.85;100.00;101229.34;4912729;28;20250;-60
2023/03/01 00:03:44;;;;;;;12.90;9.37;;;;;;;-0.84;100.00;101230.22;4921190;29;20268;-61
2023/03/01 00:06:09;;;;;;;10.93;9.17;;;;;;;-0.87;100.00;101227.63;4931210;29;21059;-60
2023/03/01 00:08:35;;;;;;;12.77;11.53;;;;;;;-0.59;100.00;101227.94;4933525;29;20505;-60
2023/03/01 00:11:21;;;;;;;11.70;9.43;;;;;;;-0.83;100.00;101235.28;4913773;28;20611;-60
2023/03/01 00:13:49;;;;;;;14.40;10.57;;;;;;;-0.80;100.00;101241.19;4934380;29;20275;-61
2023/03/01 00:16:20;;;;;;;11.37;9.10;;;;;;;-0.86;100.00;101239.44;4925990;28;20233;-60
2023/03/01 00:18:46;;;;;;;13.67;9.87;;;;;;;-0.92;100.00;101247.78;4936347;29;20570;-60
2023/03/01 00:21:12;;;;;;;17.53;10.03;;;;;;;-0.92;100.00;101236.84;4934058;28;20308;-60
2023/03/01 00:23:38;;;;;;;13.43;10.23;;;;;;;-0.88;100.00;101231.00;4948830;29;20524;-60
2023/03/01 00:26:09;;;;;;;10.73;9.07;;;;;;;-0.88;100.00;101233.50;4952822;29;20189;-59
2023/03/01 00:28:35;;;;;;;12.30;10.03;;;;;;;-0.89;100.00;101232.69;4935891;29;20197;-61
2023/03/01 00:31:10;;;;;;;11.43;9.57;;;;;;;-0.95;100.00;101230.09;4926451;28;20605;-60
2023/03/01 00:33:36;;;;;;;16.17;10.10;;;;;;;-0.94;100.00;101231.78;4935779;29;20191;-60
2023/03/01 00:36:03;;;;;;;15.50;10.90;;;;;;;-0.97;100.00;101234.25;4952676;29;20620;-60
2023/03/01 00:38:28;;;;;;;13.13;9.73;;;;;;;-0.91;100.00;101223.41;4935836;29;20188;-60
2023/03/01 00:40:54;;;;;;;11.23;9.60;;;;;;;-0.85;100.00;101221.78;4926056;28;20604;-61
2023/03/01 00:43:19;;;;;;;12.90;10.17;;;;;;;-0.89;100.00;101222.56;4952297;29;20193;-61
2023/03/01 00:45:44;;;;;;;11.67;10.13;;;;;;;-0.89;100.00;101215.00;4953346;28;20203;-60
2023/03/01 00:48:10;;;;;;;12.90;9.67;;;;;;;-0.98;100.00;101217.41;4952400;29;20177;-60
2023/03/01 00:50:35;;;;;;;13.53;9.93;;;;;;;-1.05;100.00;101211.47;4943154;28;20313;-60
2023/03/01 00:53:00;;;;;;;11.43;9.20;;;;;;;-0.98;100.00;101207.31;4952346;29;20192;-60
2023/03/01 00:55:26;;;;;;;16.20;9.83;;;;;;;-0.94;100.00;101208.19;4953093;29;20256;-60
2023/03/01 00:57:51;;;;;;;12.90;10.17;;;;;;;-0.86;100.00;101204.06;4952383;29;20201;-60
2023/03/01 01:00:18;;;;;;;13.47;9.57;;;;;;;-0.95;100.00;101202.31;4943077;28;20224;-60
2023/03/01 01:02:44;;;;;;;13.73;10.53;;;;;;;-1.00;100.00;101201.41;4952044;29;20192;-62
2023/03/01 01:05:10;;;;;;;13.57;10.90;;;;;;;-0.98;100.00;101205.66;4934206;29;20177;-61
2023/03/01 01:07:35;;;;;;;16.40;10.43;;;;;;;-0.93;100.00;101189.69;4944208;29;20732;-60
2023/03/01 01:10:01;;;;;;;16.00;11.03;;;;;;;-0.98;100.00;101194.69;4950060;29;20185;-60
2023/03/01 01:12:26;;;;;;;12.17;10.80;;;;;;;-1.05;100.00;101196.31;4942468;28;20232;-59
2023/03/01 01:14:51;;;;;;;14.00;10.83;;;;;;;-0.98;100.00;101185.44;4954992;28;20688;-60
2023/03/01 01:17:16;;;;;;;13.43;10.40;;;;;;;-0.99;100.00;101186.25;4956270;29;20561;-60
2023/03/01 01:19:42;;;;;;;13.17;10.33;;;;;;;-1.05;100.00;101185.38;4956476;29;20275;-60
2023/03/01 01:22:07;;;;;;;14.00;9.97;;;;;;;-1.05;100.00;101182.84;4945556;28;20225;-59
2023/03/01 01:24:32;;;;;;;12.87;10.40;;;;;;;-1.08;100.00;101173.56;4956290;29;20185;-59
2023/03/01 01:26:58;;;;;;;14.13;11.10;;;;;;;-1.12;100.00;101170.97;4955829;29;20334;-59
2023/03/01 01:29:23;;;;;;;13.97;11.03;;;;;;;-1.17;100.00;101179.31;4956667;29;20203;-59
2023/03/01 01:31:48;;;;;;;12.83;11.00;;;;;;;-1.10;100.00;101174.34;4945780;28;20658;-59
2023/03/01 01:34:19;;;;;;;15.00;10.83;;;;;;;-0.98;100.00;101170.28;4938774;29;20180;-62
2023/03/01 01:36:53;;;;;;;14.03;11.03;;;;;;;-1.11;100.00;101160.88;4955703;29;20324;-59
2023/03/01 01:39:19;;;;;;;14.90;11.60;;;;;;;-1.13;100.00;101162.53;4955792;29;20263;-62
2023/03/01 01:41:45;;;;;;;13.53;10.53;;;;;;;-1.05;100.00;101155.06;4929161;28;20228;-60
2023/03/01 01:44:16;;;;;;;17.73;11.10;;;;;;;-1.08;100.00;101145.78;4955678;29;20239;-60
2023/03/01 01:46:44;;;;;;;14.40;10.80;;;;;;;-0.98;100.00;101147.56;4955726;29;20192;-60
2023/03/01 01:49:37;;;;;;;14.90;10.70;;;;;;;-0.94;100.00;101143.38;4955987;29;20524;-60
2023/03/01 01:52:24;;;;;;;15.53;10.70;;;;;;;-0.97;100.00;101138.28;4928687;29;20613;-59
2023/03/01 01:55:08;;;;;;;13.77;10.77;;;;;;;-1.03;100.00;101136.56;4938796;29;20185;-60
2023/03/01 01:57:38;;;;;;;13.27;11.23;;;;;;;-0.92;100.00;101136.66;4944643;29;20211;-60
2023/03/01 02:00:13;;;;;;;14.03;10.27;;;;;;;-1.02;100.00;101143.31;4929877;28;20216;-60
2023/03/01 02:02:39;;;;;;;16.13;11.40;;;;;;;-1.05;100.00;101140.75;4954873;28;20206;-59
2023/03/01 02:05:34;;;;;;;13.93;11.03;;;;;;;-1.03;100.00;101139.09;4938499;29;20177;-60
2023/03/01 02:08:00;;;;;;;14.03;10.43;;;;;;;-0.99;100.00;101142.50;4955077;29;20617;-60
2023/03/01 02:10:28;;;;;;;14.40;11.50;;;;;;;-0.95;100.00;101143.38;4946289;28;20289;-60
2023/03/01 02:12:54;;;;;;;14.57;10.97;;;;;;;-0.98;100.00;101146.69;4938384;29;20192;-60
2023/03/01 02:15:19;;;;;;;12.80;10.47;;;;;;;-1.02;100.00;101139.94;4938422;29;20552;-61
2023/03/01 02:17:48;;;;;;;14.77;11.37;;;;;;;-1.00;100.00;101140.78;4954791;29;20204;-60
2023/03/01 02:20:26;;;;;;;14.83;11.97;;;;;;;-0.94;100.00;101137.47;4945376;28;20271;-59
2023/03/01 02:22:53;;;;;;;12.93;10.70;;;;;;;-0.92;100.00;101136.66;4953734;29;20271;-60
2023/03/01 02:25:51;;;;;;;19.27;12.00;;;;;;;-0.85;100.00;101135.88;4937407;29;20208;-61
2023/03/01 02:28:16;;;;;;;18.03;11.63;;;;;;;-0.90;100.00;101135.00;4861186;29;20214;-60
2023/03/01 02:33:28;;;;;;;14.00;10.50;;;;;;;-0.88;100.00;101130.81;4858942;29;20316;-60
2023/03/01 02:35:54;;;;;;;14.77;11.00;;;;;;;-0.91;100.00;101133.28;4857788;29;20275;-60
2023/03/01 02:38:21;;;;;;;17.30;10.53;;;;;;;-0.84;100.00;101127.47;4843297;29;20212;-60
2023/03/01 02:40:48;;;;;;;14.87;11.00;;;;;;;-0.86;100.00;101123.25;4833762;29;20228;-60
2023/03/01 02:43:14;;;;;;;14.40;11.00;;;;;;;-0.82;100.00;101118.22;4851575;29;20614;-59
2023/03/01 02:45:48;;;;;;;15.77;11.60;;;;;;;-0.83;100.00;101114.00;4861274;29;20470;-60
2023/03/01 02:48:14;;;;;;;14.73;11.27;;;;;;;-0.78;100.00;101108.13;4860932;29;20333;-60
2023/03/01 02:50:57;;;;;;;14.10;11.07;;;;;;;-0.79;100.00;101104.78;4863057;29;20696;-60
2023/03/01 02:53:38;;;;;;;16.17;11.27;;;;;;;-0.78;100.00;101096.38;4858186;29;20605;-60
2023/03/01 02:56:03;;;;;;;17.03;11.93;;;;;;;-0.80;100.00;101095.50;4842123;29;20191;-60
2023/03/01 02:58:28;;;;;;;14.73;11.13;;;;;;;-0.80;100.00;101090.44;4842679;29;20208;-60
2023/03/01 03:00:55;;;;;;;14.60;11.17;;;;;;;-0.59;100.00;101097.34;4849364;29;20249;-61
2023/03/01 03:03:21;;;;;;;16.13;11.60;;;;;;;-0.62;100.00;101093.94;4858100;29;20192;-60
2023/03/01 03:05:48;;;;;;;17.67;11.17;;;;;;;-0.62;100.00;101088.91;4905760;29;20185;-60
2023/03/01 03:08:23;;;;;;;13.23;10.90;;;;;;;-0.73;100.00;101087.16;4917721;29;20192;-59
2023/03/01 03:10:48;;;;;;;15.40;11.10;;;;;;;-0.64;100.00;101081.31;4914581;28;20375;-61
2023/03/01 03:13:15;;;;;;;15.80;11.53;;;;;;;-0.76;100.00;101079.53;4953535;29;20676;-61
2023/03/01 03:15:41;;;;;;;19.27;12.27;;;;;;;-0.73;100.00;101076.16;4936982;29;20228;-60
2023/03/01 03:18:10;;;;;;;15.50;11.93;;;;;;;-0.70;100.00;101073.69;4936155;29;20240;-60
2023/03/01 03:20:36;;;;;;;16.23;11.17;;;;;;;-0.70;100.00;101076.22;4927240;28;20225;-60
2023/03/01 03:23:02;;;;;;;14.13;12.33;;;;;;;-0.61;100.00;101073.75;4935185;29;20549;-60
2023/03/01 03:25:28;;;;;;;13.20;11.70;;;;;;;-0.51;100.00;101064.53;4953168;29;20653;-60
2023/03/01 03:27:58;;;;;;;13.70;10.83;;;;;;;-0.59;100.00;101063.66;4933853;29;20256;-62
2023/03/01 03:30:26;;;;;;;15.07;11.43;;;;;;;-0.51;100.00;101056.97;4926563;28;20310;-60
2023/03/01 03:32:52;;;;;;;14.90;11.33;;;;;;;-0.55;100.00;101061.16;4953026;29;20181;-60
2023/03/01 03:35:29;;;;;;;15.30;12.70;;;;;;;-0.63;100.00;101065.31;4954123;29;20259;-60
2023/03/01 03:38:01;;;;;;;13.13;11.70;;;;;;;-0.61;100.00;101057.75;4951963;28;20212;-60
2023/03/01 03:40:29;;;;;;;14.50;11.53;;;;;;;-0.51;100.00;101057.81;4943101;28;20243;-61
2023/03/01 03:42:55;;;;;;;16.50;12.33;;;;;;;-0.56;100.00;101051.03;4935946;29;20215;-61
2023/03/01 03:45:21;;;;;;;14.63;11.77;;;;;;;-0.53;100.00;101051.91;4952045;29;20212;-60
2023/03/01 03:47:46;;;;;;;14.37;12.20;;;;;;;-0.51;100.00;101040.13;4935468;29;20576;-60
2023/03/01 03:50:13;;;;;;;17.30;12.63;;;;;;;-0.49;100.00;101045.19;4942931;28;20228;-61
2023/03/01 03:52:39;;;;;;;17.87;12.20;;;;;;;-0.54;100.00;101037.56;4952812;29;20185;-60
2023/03/01 03:55:09;;;;;;;16.20;12.20;;;;;;;-0.56;100.00;101035.88;4953806;29;20704;-60
2023/03/01 03:57:34;;;;;;;12.83;11.10;;;;;;;-0.76;100.00;101039.09;4953398;28;20224;-60
2023/03/01 04:00:00;;;;;;;14.20;11.73;;;;;;;-0.85;100.00;101039.03;4953744;28;20227;-60
2023/03/01 04:02:26;;;;;;;14.87;11.33;;;;;;;-0.73;100.00;101038.28;4922309;28;20219;-60
2023/03/01 04:04:51;;;;;;;16.07;12.10;;;;;;;-0.68;100.00;101039.19;4953475;29;20654;-60
2023/03/01 04:07:17;;;;;;;16.03;12.27;;;;;;;-0.80;100.00;101027.28;4953212;29;20181;-59
2023/03/01 04:09:43;;;;;;;16.43;12.43;;;;;;;-0.70;100.00;101023.97;4953737;29;20657;-60
2023/03/01 04:12:09;;;;;;;17.10;11.90;;;;;;;-0.63;100.00;101029.94;4940484;28;20233;-60
2023/03/01 04:14:34;;;;;;;15.70;11.87;;;;;;;-0.69;100.00;101030.72;4949808;29;20224;-60
2023/03/01 04:16:59;;;;;;;13.70;11.40;;;;;;;-0.72;100.00;101032.38;4942657;28;20228;-61
2023/03/01 04:19:26;;;;;;;20.70;13.10;;;;;;;-0.79;100.00;101035.69;4953175;29;20192;-59
2023/03/01 04:21:52;;;;;;;19.70;13.57;;;;;;;-0.70;100.00;101030.72;4940687;28;20228;-60
2023/03/01 04:24:17;;;;;;;14.70;12.27;;;;;;;-0.82;100.00;101041.56;4949762;28;20189;-60
2023/03/01 04:26:43;;;;;;;17.23;13.00;;;;;;;-0.66;100.00;101035.81;4951540;29;20192;-60
2023/03/01 04:29:08;;;;;;;20.40;12.80;;;;;;;-0.61;100.00;101037.53;4949957;29;20201;-59
2023/03/01 04:31:33;;;;;;;19.50;12.37;;;;;;;-0.70;100.00;101038.31;4943406;28;20715;-60
2023/03/01 04:33:59;;;;;;;13.37;11.30;;;;;;;-0.89;100.00;101038.16;4951436;29;20191;-61
2023/03/01 04:36:28;;;;;;;14.47;12.30;;;;;;;-0.85;100.00;101041.56;4952587;29;20283;-60
2023/03/01 04:38:55;;;;;;;16.90;12.00;;;;;;;-0.93;100.00;101046.56;4936372;29;20246;-59
2023/03/01 04:41:23;;;;;;;19.43;13.63;;;;;;;-0.93;100.00;101041.53;4924432;28;20244;-59
2023/03/01 04:43:49;;;;;;;17.70;13.50;;;;;;;-0.92;100.00;101038.13;4932409;29;20182;-59
2023/03/01 04:46:17;;;;;;;18.23;13.07;;;;;;;-0.94;100.00;101038.97;4933656;29;20191;-60
2023/03/01 04:48:44;;;;;;;17.20;12.77;;;;;;;-0.79;100.00;101035.69;4934531;29;20181;-60
2023/03/01 04:51:13;;;;;;;15.43;12.40;;;;;;;-0.75;100.00;101040.78;4928327;29;20578;-61
2023/03/01 04:53:38;;;;;;;16.77;13.20;;;;;;;-0.85;100.00;101032.28;4936640;29;20261;-60
2023/03/01 04:56:04;;;;;;;18.97;13.60;;;;;;;-0.94;100.00;101033.91;4928751;29;20381;-60
2023/03/01 04:58:29;;;;;;;20.93;13.77;;;;;;;-0.99;100.00;101028.84;4932137;29;20182;-61
2023/03/01 05:00:55;;;;;;;18.07;12.13;;;;;;;-0.99;100.00;101029.69;4936051;28;20557;-60
2023/03/01 05:03:21;;;;;;;18.90;14.03;;;;;;;-0.91;100.00;101033.94;4924407;29;20190;-60
2023/03/01 05:05:49;;;;;;;16.77;12.77;;;;;;;-1.00;100.00;101027.13;4920451;29;20260;-60
2023/03/01 05:08:17;;;;;;;16.47;12.80;;;;;;;-1.06;100.00;101034.66;4920116;29;20219;-60
2023/03/01 05:10:50;;;;;;;17.23;12.63;;;;;;;-1.17;100.00;101025.31;4916067;28;20251;-60
2023/03/01 05:13:20;;;;;;;18.10;12.70;;;;;;;-1.14;100.00;101022.81;4951859;29;20604;-60
2023/03/01 05:15:56;;;;;;;16.90;13.83;;;;;;;-1.12;100.00;101027.88;4930482;29;20232;-60
2023/03/01 05:18:25;;;;;;;17.23;13.37;;;;;;;-1.20;100.00;101025.28;4938721;28;20195;-59
2023/03/01 05:20:51;;;;;;;18.20;13.37;;;;;;;-1.16;100.00;101023.63;4929215;28;20267;-60
2023/03/01 05:23:18;;;;;;;16.80;13.23;;;;;;;-1.12;100.00;101025.34;4934970;29;20188;-59
2023/03/01 05:25:44;;;;;;;18.93;14.67;;;;;;;-1.11;100.00;101021.16;4939375;29;20192;-60
2023/03/01 05:28:13;;;;;;;18.40;13.47;;;;;;;-1.12;100.00;101029.56;4938305;29;20958;-61
2023/03/01 05:30:39;;;;;;;18.10;13.27;;;;;;;-1.10;100.00;101021.16;4929018;28;20790;-60
2023/03/01 05:33:10;;;;;;;19.33;13.50;;;;;;;-1.08;100.00;101022.03;4934562;29;20196;-62
2023/03/01 05:35:35;;;;;;;19.37;13.20;;;;;;;-1.10;100.00;101020.31;4937303;29;20268;-60
2023/03/01 05:38:01;;;;;;;17.50;13.30;;;;;;;-1.13;100.00;101016.06;4948967;29;20296;-59
2023/03/01 05:40:26;;;;;;;18.17;14.07;;;;;;;-1.05;100.00;101019.53;4930106;28;20654;-64
2023/03/01 05:42:56;;;;;;;16.73;13.47;;;;;;;-1.06;100.00;101017.00;4949025;29;20217;-60
2023/03/01 05:45:24;;;;;;;17.77;13.57;;;;;;;-1.08;100.00;101016.13;4935483;29;20181;-60
2023/03/01 05:47:50;;;;;;;16.77;13.27;;;;;;;-0.98;100.00;101012.81;4935362;29;20189;-65
2023/03/01 05:50:25;;;;;;;17.07;14.17;;;;;;;-1.02;100.00;101021.22;4927318;28;20339;-60
2023/03/01 05:52:56;;;;;;;17.90;14.13;;;;;;;-1.04;100.00;101016.16;4955076;29;20203;-60
2023/03/01 05:55:21;;;;;;;19.20;13.77;;;;;;;-1.08;100.00;101022.03;4938120;29;20263;-60
2023/03/01 05:57:47;;;;;;;18.43;14.30;;;;;;;-1.03;100.00;101022.06;4955288;29;20347;-59
2023/03/01 06:00:16;;;;;;;19.60;12.97;;;;;;;-1.08;100.00;101024.56;4927709;28;20177;-60
2023/03/01 06:02:41;;;;;;;19.60;14.13;;;;;;;-1.06;100.00;101024.56;4938499;29;20184;-59
2023/03/01 06:05:10;;;;;;;18.63;13.43;;;;;;;-1.02;100.00;101027.13;4940037;29;20190;-59
2023/03/01 06:07:36;;;;;;;16.90;12.77;;;;;;;-0.95;100.00;101022.13;4936567;29;20233;-60
2023/03/01 06:10:03;;;;;;;16.57;13.73;;;;;;;-0.99;100.00;101018.75;4937334;29;20185;-60
2023/03/01 06:12:33;;;;;;;21.17;13.30;;;;;;;-1.00;100.00;101022.94;4912904;29;20224;-59
2023/03/01 06:14:59;;;;;;;20.90;13.57;;;;;;;-0.92;100.00;101014.56;4938107;29;20252;-59
2023/03/01 06:17:24;;;;;;;17.47;13.47;;;;;;;-0.91;100.00;101018.78;4955227;29;20627;-60
2023/03/01 06:19:50;;;;;;;18.57;13.27;;;;;;;-0.90;100.00;101018.78;4955259;29;20199;-65
2023/03/01 06:22:15;;;;;;;19.17;14.23;;;;;;;-0.87;100.00;101017.97;4944423;28;20291;-60
2023/03/01 06:24:40;;;;;;;18.27;13.30;;;;;;;-0.84;100.00;101020.53;4938074;29;20189;-60
2023/03/01 06:27:06;;;;;;;17.70;13.17;;;;;;;-0.76;100.00;101018.88;4954899;28;20220;-60
2023/03/01 06:29:31;;;;;;;17.33;12.90;;;;;;;-0.73;100.00;101016.41;4926017;29;20180;-60
2023/03/01 06:31:56;;;;;;;18.03;12.47;;;;;;;-0.71;100.00;101016.41;4934649;28;20251;-60
2023/03/01 06:34:21;;;;;;;18.13;13.67;;;;;;;-0.66;100.00;101022.31;4940240;29;20181;-60
2023/03/01 06:36:47;;;;;;;20.70;12.83;;;;;;;-0.58;100.00;101015.66;4945911;29;20599;-60
2023/03/01 06:39:12;;;;;;;18.87;13.53;;;;;;;-0.49;100.00;101008.09;4950041;29;20192;-60
2023/03/01 06:41:37;;;;;;;17.60;13.20;;;;;;;-0.46;100.00;101009.81;4925334;28;20292;-61
2023/03/01 06:44:03;;;;;;;17.60;13.50;;;;;;;-0.44;100.00;101008.13;4949299;29;20181;-60
2023/03/01 06:46:28;;;;;;;17.23;13.43;;;;;;;-0.39;100.00;101006.47;4931814;29;20185;-60
2023/03/01 06:48:54;;;;;;;20.70;13.17;;;;;;;-0.29;100.00;101004.84;4943406;29;20235;-59
2023/03/01 06:51:19;;;;;;;17.77;13.00;;;;;;;-0.33;100.00;101003.97;4935353;28;20233;-61
2023/03/01 06:53:46;;;;;;;16.13;12.10;;;;;;;-0.27;100.00;101007.38;4945354;29;20584;-61
2023/03/01 06:56:11;;;;;;;19.50;13.10;;;;;;;-0.31;100.00;101009.06;4934957;29;20220;-60
2023/03/01 06:58:37;;;;;;;16.10;12.63;;;;;;;-0.30;100.00;101009.91;4939795;29;20615;-60
2023/03/01 07:01:06;;;;;;;14.63;12.27;;;;;;;-0.28;100.00;101010.75;4935870;28;20714;-60
2023/03/01 07:03:31;;;;;;;14.40;12.00;;;;;;;-0.30;100.00;101010.72;4932741;29;20542;-60
2023/03/01 07:05:57;;;;;;;18.40;13.07;;;;;;;-0.22;100.00;101010.78;4936936;29;20185;-61
2023/03/01 07:08:22;;;;;;;16.37;11.80;;;;;;;-0.24;100.00;101009.94;4931115;29;20532;-62
2023/03/01 07:10:47;;;;;;;18.37;12.27;;;;;;;-0.12;100.00;101012.50;4925749;28;20229;-60
2023/03/01 07:13:12;;;;;;;15.53;12.37;;;;;;;-0.12;100.00;101015.03;4922169;29;20643;-60
2023/03/01 07:15:40;;;;;;;18.40;12.97;;;;;;;-0.01;100.00;101017.63;4937328;29;20221;-60
2023/03/01 07:18:05;;;;;;;19.00;12.23;;;;;;;0.35;99.59;101015.19;4947640;29;20197;-60
2023/03/01 07:20:30;;;;;;;18.77;12.80;;;;;;;0.52;97.17;101012.69;4934892;28;20264;-60
2023/03/01 07:22:58;;;;;;;17.80;11.60;;;;;;;0.50;95.56;101007.63;4942683;29;20255;-60
2023/03/01 07:25:23;;;;;;;15.23;11.37;;;;;;;0.60;94.47;101009.34;4946336;29;20181;-59
2023/03/01 07:27:51;;;;;;;18.53;11.87;;;;;;;0.72;93.76;101007.66;4942828;29;20218;-60
2023/03/01 07:30:16;;;;;;;19.43;13.03;;;;;;;0.80;92.46;101003.44;4934265;28;20189;-60
2023/03/01 07:32:42;;;;;;;16.97;11.87;;;;;;;0.75;92.44;101011.03;4937678;29;20180;-61
2023/03/01 07:35:08;;;;;;;14.77;11.50;;;;;;;0.68;91.92;101003.44;4927951;29;20364;-60
2023/03/01 07:37:33;;;;;;;14.47;11.47;;;;;;;0.89;92.53;100997.53;4939109;29;20551;-60
2023/03/01 07:39:58;;;;;;;17.17;11.47;;;;;;;1.19;90.68;100991.63;4944968;29;20247;-60
2023/03/01 07:42:23;;;;;;;17.53;12.40;;;;;;;1.04;90.04;100994.16;4928588;28;20665;-60
2023/03/01 07:44:49;;;;;;;16.17;11.23;;;;;;;1.03;90.36;101002.59;4946342;29;20660;-59
2023/03/01 07:47:14;;;;;;;17.40;10.93;;;;;;;0.76;90.51;100987.41;4948506;29;20195;-60
2023/03/01 07:49:39;;;;;;;16.23;12.47;;;;;;;0.67;93.23;100991.63;4953880;29;20579;-61
2023/03/01 07:52:05;;;;;;;16.23;12.07;;;;;;;0.71;92.98;100994.16;4942938;28;20304;-60
2023/03/01 07:54:30;;;;;;;14.93;11.50;;;;;;;0.58;93.38;100989.91;4953623;29;20185;-60
2023/03/01 07:56:57;;;;;;;15.23;11.80;;;;;;;0.73;93.45;100995.00;4953095;28;20573;-60
2023/03/01 07:59:28;;;;;;;17.27;10.70;;;;;;;0.63;93.55;101001.75;4965602;28;20227;-60
2023/03/01 08:01:54;;;;;;;15.13;11.37;;;;;;;0.65;94.04;100991.63;4962905;28;20220;-60
2023/03/01 08:04:19;;;;;;;15.37;11.47;;;;;;;0.74;93.93;100989.06;4974449;28;20195;-60
2023/03/01 08:06:44;;;;;;;17.63;11.53;;;;;;;0.63;94.47;100993.28;4970473;28;20192;-59
2023/03/01 08:09:10;;;;;;;15.23;11.83;;;;;;;0.61;94.81;100989.94;4971436;28;20227;-60
2023/03/01 08:11:35;;;;;;;16.10;13.50;;;;;;;0.57;93.97;100989.09;4950404;28;20839;-60
2023/03/01 08:14:00;;;;;;;16.27;12.33;;;;;;;0.70;94.27;100999.22;4981640;28;20235;-60
2023/03/01 08:16:26;;;;;;;17.27;12.77;;;;;;;0.78;93.76;100995.84;4977115;28;20699;-60
2023/03/01 08:18:51;;;;;;;15.23;11.70;;;;;;;0.89;92.28;100997.53;4971909;28;20191;-60
2023/03/01 08:21:17;;;;;;;16.93;12.33;;;;;;;0.86;91.46;100987.41;4964901;28;20234;-60
2023/03/01 08:23:43;;;;;;;15.57;11.53;;;;;;;0.95;91.80;100993.28;4970662;28;20247;-60
2023/03/01 08:26:12;;;;;;;15.83;12.30;;;;;;;0.84;90.84;100984.03;4971950;28;20192;-59
2023/03/01 08:28:38;;;;;;;17.57;11.97;;;;;;;0.76;90.87;100989.09;4965182;28;20203;-60
2023/03/01 08:31:21;;;;;;;14.30;11.47;;;;;;;0.83;91.69;100985.69;4968282;28;20304;-59
2023/03/01 08:33:50;;;;;;;15.30;11.47;;;;;;;0.83;91.12;100990.75;4969223;28;20193;-60
2023/03/01 08:36:16;;;;;;;16.67;12.60;;;;;;;0.81;91.46;100977.28;4952526;28;20180;-60
2023/03/01 08:38:42;;;;;;;15.07;11.57;;;;;;;0.86;90.69;100984.88;4964088;28;20193;-60
2023/03/01 08:41:07;;;;;;;15.47;10.90;;;;;;;0.89;91.13;100982.34;4970087;28;20220;-59
2023/03/01 08:43:33;;;;;;;17.73;11.87;;;;;;;0.89;91.12;100982.34;4979388;28;20184;-60
2023/03/01 08:45:58;;;;;;;18.03;12.93;;;;;;;0.89;90.24;100974.72;4975473;28;20234;-60
2023/03/01 08:48:23;;;;;;;14.50;11.53;;;;;;;1.00;90.40;100979.81;4980326;28;20195;-60
2023/03/01 08:50:49;;;;;;;16.93;12.00;;;;;;;1.01;89.70;100974.72;4944779;28;20232;-60
2023/03/01 08:53:14;;;;;;;14.40;11.57;;;;;;;1.11;89.24;100962.88;4971373;28;20181;-60
2023/03/01 08:55:39;;;;;;;14.13;11.10;;;;;;;1.11;88.23;100952.75;4972156;28;20195;-61
2023/03/01 08:58:05;;;;;;;16.40;12.53;;;;;;;1.22;86.55;100955.28;4971803;28;20567;-61
2023/03/01 09:00:30;;;;;;;14.17;11.03;;;;;;;1.24;85.43;100951.88;4965705;28;20228;-60
2023/03/01 09:02:55;;;;;;;17.63;13.47;;;;;;;1.37;85.68;100945.09;4976701;28;20188;-61
2023/03/01 09:05:20;;;;;;;17.63;13.70;;;;;;;1.64;83.49;100943.31;4970166;28;20421;-61
2023/03/01 09:07:46;;;;;;;14.67;11.63;;;;;;;1.65;80.17;100931.47;4971946;28;20183;-60
2023/03/01 09:10:11;;;;;;;20.70;11.87;;;;;;;1.69;80.16;100939.06;4963010;28;20187;-60
2023/03/01 09:12:37;;;;;;;15.80;11.30;;;;;;;1.69;80.37;100933.16;4970961;28;20182;-60
2023/03/01 09:15:02;;;;;;;18.60;12.17;;;;;;;1.77;80.05;100931.41;4972124;28;20230;-60
2023/03/01 09:17:28;;;;;;;17.33;12.43;;;;;;;2.25;75.51;100937.06;4971826;28;20214;-60
2023/03/01 09:19:53;;;;;;;12.93;10.83;;;;;;;2.62;72.07;100927.47;4974118;28;20194;-60
2023/03/01 09:22:18;;;;;;;15.17;11.40;;;;;;;3.55;66.52;100927.41;4970022;28;20223;-60
2023/03/01 09:24:44;;;;;;;14.90;11.57;;;;;;;5.10;57.87;100919.97;4970791;28;20275;-60
2023/03/01 09:27:10;;;;;;;15.43;11.23;;;;;;;5.52;53.45;100917.44;4971799;28;20287;-61
2023/03/01 09:29:37;;;;;;;15.47;11.47;;;;;;;4.94;54.27;100921.94;4971926;28;20182;-61
2023/03/01 09:32:02;;;;;;;15.27;11.57;;;;;;;4.96;53.66;100920.19;4963762;28;20227;-60
2023/03/01 09:34:28;;;;;;;14.07;12.43;;;;;;;5.66;52.84;100914.59;4971965;28;20522;-61
2023/03/01 09:36:53;;;;;;;13.33;11.87;;;;;;;5.90;51.03;100909.81;4975160;28;20351;-62
2023/03/01 09:39:20;;;;;;;15.50;11.13;;;;;;;5.69;50.60;100911.13;4975455;28;20188;-61
2023/03/01 09:42:04;;;;;;;16.90;12.57;;;;;;;6.05;49.37;100903.56;4967222;28;20230;-61
2023/03/01 09:44:38;;;;;;;23.48;18.00;;;;;;;6.52;48.63;100908.44;4971690;28;20422;-61
2023/03/01 09:47:09;;;;;;;13.03;11.63;;;;;;;6.43;48.31;100909.50;4974764;28;20263;-59
2023/03/01 09:49:39;;;;;;;13.20;11.07;;;;;;;7.17;46.71;100910.16;4964198;28;20181;-61
2023/03/01 09:52:23;;;;;;;14.47;12.50;;;;;;;5.91;48.01;100899.56;4966826;28;20269;-60
2023/03/01 09:54:54;;;;;;;17.87;11.17;;;;;;;5.85;49.33;100909.09;4975134;28;20195;-60
2023/03/01 09:57:29;;;;;;;13.70;12.20;;;;;;;6.67;48.22;100909.75;4972561;28;20243;-62
2023/03/01 10:00:07;;;;;;;13.80;12.37;;;;;;;7.09;47.04;100899.28;4973187;28;20184;-61
2023/03/01 10:02:47;;;;;;;15.07;12.40;;;;;;;6.63;47.64;100896.22;4964304;28;20220;-60
2023/03/01 10:05:39;;;;;;;14.33;12.73;;;;;;;7.18;46.26;100903.31;4962487;28;20192;-61
2023/03/01 10:08:10;;;;;;;15.77;11.60;;;;;;;6.23;47.85;100892.09;4974603;28;20723;-60
2023/03/01 10:10:42;;;;;;;14.43;11.27;;;;;;;6.20;47.98;100899.81;4956110;28;20636;-62
2023/03/01 10:13:43;;;;;;;12.77;11.47;;;;;;;6.18;48.72;100891.34;4961439;28;20212;-61
2023/03/01 10:16:17;;;;;;;15.48;13.90;;;;;;;6.92;46.57;100892.91;4958322;28;20453;-61
2023/03/01 10:18:46;;;;;;;17.00;12.40;;;;;;;6.47;47.01;100898.31;4973671;28;20184;-61
2023/03/01 10:21:18;;;;;;;19.20;12.83;;;;;;;7.09;46.78;100889.03;4971061;28;20641;-61
2023/03/01 10:23:44;;;;;;;17.10;12.50;;;;;;;6.93;47.15;100880.94;4964844;28;20177;-60
2023/03/01 10:26:15;;;;;;;15.80;13.43;;;;;;;7.74;45.31;100875.22;4963964;28;20246;-60
2023/03/01 10:28:54;;;;;;;15.63;13.20;;;;;;;6.70;46.81;100882.41;4964619;28;20212;-61
2023/03/01 10:31:27;;;;;;;14.93;13.25;;;;;;;7.56;45.20;100880.91;4955546;28;21324;-60
2023/03/01 10:33:55;;;;;;;13.80;11.83;;;;;;;6.03;48.50;100875.50;4973163;28;20263;-60
2023/03/01 10:36:21;;;;;;;15.07;13.50;;;;;;;5.26;50.89;100866.91;4963056;28;20660;-60
2023/03/01 10:38:53;;;;;;;14.23;12.73;;;;;;;4.82;52.75;100870.28;4967640;28;20191;-60
2023/03/01 10:41:20;;;;;;;15.27;13.13;;;;;;;4.12;55.09;100873.16;4973930;28;20310;-60
2023/03/01 10:43:48;;;;;;;18.80;14.73;;;;;;;3.90;58.94;100861.63;4972993;28;20278;-60
2023/03/01 10:46:35;;;;;;;17.42;15.65;;;;;;;4.18;58.61;100867.13;4970908;28;20430;-60
2023/03/01 10:49:14;;;;;;;15.97;13.17;;;;;;;3.83;58.76;100863.41;4971350;28;20214;-60
2023/03/01 10:51:41;;;;;;;19.83;13.83;;;;;;;3.65;61.25;100850.06;4965550;28;20726;-61
2023/03/01 10:54:18;;;;;;;19.60;14.57;;;;;;;3.72;61.71;100845.72;4972772;28;20483;-60
2023/03/01 10:56:49;;;;;;;17.33;15.43;;;;;;;3.82;60.71;100852.41;4966656;28;20802;-60
2023/03/01 10:59:41;;;;;;;17.23;13.83;;;;;;;3.65;62.09;100841.63;4970617;28;20417;-60
2023/03/01 11:02:27;;;;;;;18.13;13.33;;;;;;;3.48;63.24;100839.28;4977006;28;20579;-60
2023/03/01 11:04:57;;;;;;;18.10;12.90;;;;;;;3.57;63.69;100833.25;4969691;28;20203;-59
2023/03/01 11:07:22;;;;;;;20.93;14.43;;;;;;;3.42;64.33;100832.56;4969877;28;20320;-58
2023/03/01 11:09:47;;;;;;;20.20;15.20;;;;;;;3.83;63.75;100835.41;4973399;28;20778;-59
2023/03/01 11:12:17;;;;;;;18.03;11.40;;;;;;;3.84;61.39;100824.38;4978608;28;20232;-59
2023/03/01 11:14:48;;;;;;;16.27;13.00;;;;;;;3.73;60.76;100821.97;4971326;28;20227;-59